Time;durP1;ratioP1;P1;durP2;ratioP2;P2;SDS_P1;SDS_P2;PMS_P1;PMS_P2;Temp;Humidity;BMP_temperature;BMP_pressure;BME280_temperature;BME280_humidity;BME280_pressure;Samples;Min_cycle;Max_cycle;Signal;HPM_P1;HPM_P2
2022/01/20 00:02:28;;;;;;;12.02;1.55;;;4.30;99.90;;;;;;6116165;23;20404;-91
2022/01/20 00:08:08;;;;;;;23.40;2.88;;;4.30;99.90;;;;;;6117185;23;20079;-94
2022/01/20 00:26:00;;;;;;;16.95;2.30;;;4.30;99.90;;;;;;6101266;23;20018;-89
2022/01/20 00:28:46;;;;;;;15.13;2.17;;;4.30;99.90;;;;;;6126985;23;20022;-91
2022/01/20 00:31:39;;;;;;;14.18;1.58;;;4.30;99.90;;;;;;6131411;23;20014;-92
2022/01/20 00:39:28;;;;;;;16.05;2.00;;;4.30;99.90;;;;;;6155910;23;20025;-92
2022/01/20 00:41:54;;;;;;;;;;;4.40;99.90;;;;;;6131572;23;20014;-91
2022/01/20 00:44:21;;;;;;;14.82;1.85;;;4.40;99.90;;;;;;6131530;23;19920;-91
2022/01/20 00:46:46;;;;;;;13.23;2.00;;;4.40;99.90;;;;;;6131358;23;20022;-91
2022/01/20 00:49:12;;;;;;;15.90;1.90;;;4.40;99.90;;;;;;6131260;23;20064;-90
2022/01/20 00:51:38;;;;;;;13.73;2.40;;;4.40;99.90;;;;;;6131245;23;20022;-92
2022/01/20 00:54:04;;;;;;;16.33;2.70;;;4.50;99.90;;;;;;6131808;23;20545;-90
2022/01/20 00:56:30;;;;;;;15.97;2.13;;;4.40;99.90;;;;;;6131029;23;20024;-92
2022/01/20 00:58:55;;;;;;;12.83;1.80;;;4.50;99.90;;;;;;6130561;23;20069;-89
2022/01/20 01:01:24;;;;;;;12.47;1.73;;;4.50;99.90;;;;;;6154956;23;20025;-88
2022/01/20 01:03:49;;;;;;;13.52;1.75;;;4.50;99.90;;;;;;6130538;23;20071;-87
2022/01/20 01:09:11;;;;;;;8.23;0.95;;;4.30;99.90;;;;;;6103722;23;20018;-89
2022/01/20 01:11:38;;;;;;;7.15;1.02;;;4.20;99.90;;;;;;6130837;23;20026;-93
2022/01/20 01:14:05;;;;;;;9.45;1.13;;;4.10;99.90;;;;;;6131023;23;20049;-90
2022/01/20 01:22:14;;;;;;;12.07;1.10;;;3.90;99.90;;;;;;6154953;23;20407;-90
2022/01/20 01:24:44;;;;;;;9.13;0.95;;;3.90;99.90;;;;;;6130520;23;20056;-87
2022/01/20 01:27:12;;;;;;;7.47;0.80;;;3.80;99.90;;;;;;6155067;23;20024;-88
2022/01/20 01:32:19;;;;;;;17.25;1.77;;;3.70;99.90;;;;;;6155020;23;20025;-91
2022/01/20 01:35:28;;;;;;;12.55;1.40;;;3.60;99.90;;;;;;6155443;23;20384;-90
2022/01/20 01:38:51;;;;;;;14.82;1.83;;;3.60;99.90;;;;;;6130127;23;20018;-89
2022/01/20 01:41:15;;;;;;;13.70;1.52;;;3.60;99.90;;;;;;6150415;23;20018;-90
2022/01/20 01:43:44;;;;;;;14.98;1.55;;;3.70;99.90;;;;;;6130796;23;20025;-90
2022/01/20 01:46:12;;;;;;;15.75;1.50;;;3.70;99.90;;;;;;6130585;23;20017;-90
2022/01/20 01:48:40;;;;;;;14.45;2.03;;;3.80;99.90;;;;;;6130699;23;20466;-90
2022/01/20 01:51:07;;;;;;;18.55;1.85;;;3.80;99.90;;;;;;6155210;23;20022;-91
2022/01/20 01:56:08;;;;;;;17.52;1.90;;;4.00;99.90;;;;;;6126290;23;20531;-88
2022/01/20 01:58:35;;;;;;;20.67;2.50;;;4.20;99.90;;;;;;6125364;23;20022;-90
2022/01/20 02:03:58;;;;;;;16.95;2.42;;;4.10;99.90;;;;;;6180424;23;20020;-93
2022/01/20 02:20:13;;;;;;;17.50;2.25;;;3.70;99.90;;;;;;6185853;23;20019;-88
2022/01/20 02:22:40;;;;;;;18.42;2.67;;;3.60;99.90;;;;;;6134896;23;20346;-91
2022/01/20 02:25:16;;;;;;;16.40;2.35;;;3.60;99.90;;;;;;6134539;23;20020;-91
2022/01/20 02:27:42;;;;;;;15.13;2.00;;;3.60;99.90;;;;;;6159351;23;20017;-91
2022/01/20 02:30:08;;;;;;;18.00;2.70;;;3.60;99.90;;;;;;6159651;23;20469;-90
2022/01/20 02:32:33;;;;;;;19.37;2.90;;;3.70;99.90;;;;;;6159431;23;20049;-89
2022/01/20 02:34:59;;;;;;;20.37;2.57;;;3.70;99.90;;;;;;6160061;23;20016;-92
2022/01/20 02:37:25;;;;;;;20.73;3.17;;;3.80;99.90;;;;;;6161078;23;20071;-88
2022/01/20 02:45:19;;;;;;;31.55;3.58;;;3.90;99.90;;;;;;6161193;23;20021;-90
2022/01/20 02:47:45;;;;;;;24.90;3.63;;;4.00;99.90;;;;;;6161566;23;20071;-87
2022/01/20 02:50:10;;;;;;;24.43;4.30;;;4.00;99.90;;;;;;6161030;23;20096;-90
2022/01/20 02:52:36;;;;;;;29.97;3.83;;;4.00;99.90;;;;;;6136831;23;20024;-92
2022/01/20 02:55:02;;;;;;;19.60;3.30;;;4.10;99.90;;;;;;6136606;23;20397;-91
2022/01/20 02:57:28;;;;;;;15.02;2.03;;;4.20;99.90;;;;;;6136779;23;20024;-89
2022/01/20 02:59:54;;;;;;;19.53;2.80;;;4.20;99.90;;;;;;6136975;23;20051;-91
2022/01/20 03:02:20;;;;;;;14.65;2.05;;;4.00;99.90;;;;;;6160864;23;20032;-91
2022/01/20 03:04:47;;;;;;;12.60;2.07;;;3.90;99.90;;;;;;6187572;23;20025;-89
2022/01/20 03:07:13;;;;;;;20.10;2.85;;;3.80;99.90;;;;;;6136745;23;20048;-88
2022/01/20 03:09:39;;;;;;;12.85;2.55;;;3.70;99.90;;;;;;6136977;23;20052;-92
2022/01/20 03:12:06;;;;;;;21.03;2.90;;;3.60;99.90;;;;;;6136752;23;20024;-90
2022/01/20 03:14:31;;;;;;;25.23;3.10;;;3.60;99.90;;;;;;6160839;23;20052;-88
2022/01/20 03:16:58;;;;;;;22.23;3.57;;;3.50;99.90;;;;;;6136538;23;20075;-89
2022/01/20 03:19:24;;;;;;;22.33;3.50;;;3.50;99.90;;;;;;6136223;23;20063;-89
2022/01/20 03:21:49;;;;;;;28.33;3.73;;;3.50;99.90;;;;;;6136580;23;20052;-89
2022/01/20 03:24:15;;;;;;;24.87;3.70;;;3.60;99.90;;;;;;6136252;23;20024;-89
2022/01/20 03:26:41;;;;;;;20.27;3.83;;;3.60;99.90;;;;;;6136307;23;20091;-89
2022/01/20 03:29:08;;;;;;;22.50;3.30;;;3.60;99.90;;;;;;6136175;23;20015;-86
2022/01/20 03:31:34;;;;;;;16.67;2.67;;;3.70;99.90;;;;;;6160646;23;20017;-87
2022/01/20 03:34:00;;;;;;;17.03;2.50;;;3.70;99.90;;;;;;6136488;23;20052;-86
2022/01/20 03:36:26;;;;;;;17.33;1.98;;;3.80;99.90;;;;;;6136025;23;20399;-92
2022/01/20 03:38:52;;;;;;;12.27;2.03;;;3.80;99.90;;;;;;6136370;23;20049;-86
2022/01/20 03:41:19;;;;;;;10.93;1.60;;;3.80;99.90;;;;;;6160847;23;20359;-87
2022/01/20 03:43:45;;;;;;;12.40;1.60;;;3.90;99.90;;;;;;6160017;23;20457;-89
2022/01/20 03:46:13;;;;;;;15.52;2.10;;;3.90;99.90;;;;;;6160131;23;20021;-89
2022/01/20 03:48:56;;;;;;;16.63;2.05;;;3.90;99.90;;;;;;6135191;23;20013;-88
2022/01/20 03:51:24;;;;;;;12.40;2.08;;;3.90;99.90;;;;;;6160719;23;20029;-88
2022/01/20 03:53:53;;;;;;;10.63;1.77;;;3.80;99.90;;;;;;6160642;23;20012;-86
2022/01/20 03:56:20;;;;;;;11.15;2.55;;;3.80;99.90;;;;;;6160193;23;20031;-85
2022/01/20 03:58:45;;;;;;;;;;;3.80;99.90;;;;;;6160818;23;20017;-85
2022/01/20 04:01:12;;;;;;;12.90;1.92;;;3.80;99.90;;;;;;6160194;23;19970;-86
2022/01/20 04:03:38;;;;;;;14.68;2.78;;;3.80;99.90;;;;;;6160112;23;20017;-86
2022/01/20 04:06:04;;;;;;;12.97;2.43;;;3.80;99.90;;;;;;6159902;23;20024;-86
2022/01/20 04:08:48;;;;;;;11.88;2.33;;;3.80;99.90;;;;;;6160271;23;20021;-87
2022/01/20 04:11:21;;;;;;;16.75;2.20;;;3.80;99.90;;;;;;6160335;23;20019;-88
2022/01/20 04:13:47;;;;;;;13.45;1.95;;;3.80;99.90;;;;;;6160313;23;20017;-87
2022/01/20 04:16:19;;;;;;;14.87;1.93;;;3.80;99.90;;;;;;6159949;23;20526;-85
2022/01/20 04:18:54;;;;;;;19.58;2.67;;;3.90;99.90;;;;;;6159827;23;20017;-85
2022/01/20 04:21:21;;;;;;;17.05;2.85;;;3.90;99.90;;;;;;6135650;23;20350;-85
2022/01/20 04:23:48;;;;;;;14.48;2.10;;;3.90;99.90;;;;;;6136521;23;20339;-87
2022/01/20 04:26:13;;;;;;;14.48;2.63;;;4.00;99.90;;;;;;6138145;23;20027;-89
2022/01/20 04:28:39;;;;;;;16.37;2.17;;;3.90;99.90;;;;;;6136406;23;20088;-90
2022/01/20 04:31:05;;;;;;;13.67;2.57;;;4.00;99.90;;;;;;6138417;23;20517;-88
2022/01/20 04:33:31;;;;;;;32.33;2.67;;;4.00;99.90;;;;;;6139727;23;20539;-88
2022/01/20 04:35:56;;;;;;;20.07;2.80;;;4.00;99.90;;;;;;6160781;23;20036;-90
2022/01/20 04:38:22;;;;;;;24.93;2.80;;;4.00;99.90;;;;;;6187017;23;20339;-87
2022/01/20 04:40:48;;;;;;;20.17;3.57;;;4.00;99.90;;;;;;6135683;23;20021;-88
2022/01/20 04:43:14;;;;;;;23.90;3.67;;;3.90;99.90;;;;;;6135284;23;20028;-89
2022/01/20 04:45:47;;;;;;;22.38;3.42;;;3.90;99.90;;;;;;6135704;23;20028;-88
2022/01/20 04:48:23;;;;;;;18.35;2.38;;;3.80;99.90;;;;;;6135696;23;20342;-88
2022/01/20 04:59:03;;;;;;;14.82;2.25;;;3.50;99.90;;;;;;6159618;23;20056;-86
2022/01/20 05:01:29;;;;;;;18.35;2.22;;;3.40;99.90;;;;;;6135214;23;20104;-87
2022/01/20 05:03:56;;;;;;;14.07;2.67;;;3.40;99.90;;;;;;6159535;23;20055;-87
2022/01/20 05:06:21;;;;;;;16.27;2.15;;;3.40;99.90;;;;;;6184538;23;20021;-88
2022/01/20 05:08:49;;;;;;;18.33;2.90;;;3.40;99.90;;;;;;6159888;23;20020;-87
2022/01/20 05:11:16;;;;;;;15.40;2.65;;;3.40;99.90;;;;;;6135261;23;20394;-87
2022/01/20 05:13:42;;;;;;;11.95;1.90;;;3.40;99.90;;;;;;6159726;23;20021;-88
2022/01/20 05:16:08;;;;;;;18.00;1.90;;;3.40;99.90;;;;;;6159743;23;20067;-90
2022/01/20 05:18:34;;;;;;;12.15;2.10;;;3.30;99.90;;;;;;6160051;23;20021;-93
2022/01/20 05:21:00;;;;;;;7.93;1.38;;;3.30;99.90;;;;;;6135648;23;20016;-88
2022/01/20 05:23:26;;;;;;;16.47;1.70;;;3.20;99.90;;;;;;6160228;23;20148;-88
2022/01/20 05:25:51;;;;;;;13.87;2.00;;;3.10;99.90;;;;;;6185612;23;20020;-88
2022/01/20 05:28:18;;;;;;;12.83;1.70;;;3.00;99.90;;;;;;6135051;23;20087;-91
2022/01/20 05:30:43;;;;;;;14.48;2.17;;;2.90;99.90;;;;;;6159721;23;20021;-89
2022/01/20 05:33:10;;;;;;;15.07;2.17;;;3.00;99.90;;;;;;6160022;23;20092;-87
2022/01/20 05:35:35;;;;;;;14.65;2.25;;;2.90;99.90;;;;;;6159494;23;20047;-86
2022/01/20 05:38:01;;;;;;;15.23;2.50;;;3.00;99.90;;;;;;6159530;23;20452;-87
2022/01/20 05:40:27;;;;;;;14.30;2.30;;;3.00;99.90;;;;;;6185924;23;20021;-87
2022/01/20 05:42:53;;;;;;;14.53;1.97;;;3.00;99.90;;;;;;6159498;23;20367;-88
2022/01/20 05:45:20;;;;;;;13.17;1.70;;;2.90;99.90;;;;;;6134933;23;20422;-86
2022/01/20 05:47:47;;;;;;;18.73;2.53;;;2.90;99.90;;;;;;6160208;23;20252;-85
2022/01/20 05:50:17;;;;;;;19.40;2.20;;;2.90;99.90;;;;;;6185786;23;20454;-90
2022/01/20 05:52:44;;;;;;;16.60;2.80;;;2.90;99.90;;;;;;6134883;23;20024;-83
2022/01/20 05:55:12;;;;;;;13.18;2.03;;;3.00;99.90;;;;;;6159627;23;20021;-92
2022/01/20 05:57:38;;;;;;;15.95;2.20;;;3.00;99.90;;;;;;6159341;23;20079;-88
2022/01/20 06:00:07;;;;;;;12.68;2.55;;;2.90;99.90;;;;;;6159746;23;20024;-89
2022/01/20 06:03:35;;;;;;;16.17;2.78;;;3.10;99.90;;;;;;6157149;23;20032;-89
2022/01/20 06:13:51;;;;;;;14.90;2.30;;;3.30;99.90;;;;;;6186541;23;20029;-88
2022/01/20 06:16:17;;;;;;;14.45;2.58;;;3.40;99.90;;;;;;6136739;23;20024;-89
2022/01/20 06:19:17;;;;;;;20.05;2.80;;;3.50;99.90;;;;;;6137163;23;20017;-89
2022/01/20 06:21:45;;;;;;;13.73;1.98;;;3.60;99.90;;;;;;6136756;23;20036;-88
2022/01/20 06:24:13;;;;;;;16.45;1.95;;;3.60;99.90;;;;;;6101280;23;20018;-86
2022/01/20 06:58:23;;;;;;;13.23;1.80;;;3.10;99.90;;;;;;6158455;23;20032;-90
2022/01/20 07:06:32;;;;;;;17.95;2.60;;;3.10;99.90;;;;;;6128062;23;20448;-91
2022/01/20 07:08:59;;;;;;;26.25;3.40;;;3.10;99.90;;;;;;6078117;23;20026;-90
2022/01/20 07:11:25;;;;;;;18.60;2.20;;;3.10;99.90;;;;;;6102244;23;20018;-91
2022/01/20 07:13:50;;;;;;;18.70;2.20;;;3.10;99.90;;;;;;6102771;23;20037;-92
2022/01/20 07:16:17;;;;;;;13.77;1.77;;;3.00;99.90;;;;;;6102773;23;20340;-87
2022/01/20 07:18:42;;;;;;;21.70;2.90;;;3.10;99.90;;;;;;6078100;23;20026;-86
2022/01/20 07:21:08;;;;;;;19.40;2.80;;;3.10;99.90;;;;;;6077375;23;20444;-87
2022/01/20 07:23:34;;;;;;;22.63;3.83;;;3.10;99.90;;;;;;6077717;23;20025;-87
2022/01/20 07:33:46;;;;;;;9.52;1.85;;;3.10;99.90;;;;;;6127036;23;20440;-87
2022/01/20 07:38:49;;;;;;;10.60;1.80;;;3.00;99.90;;;;;;6156279;23;20029;-87
2022/01/20 07:41:14;;;;;;;;;;;2.90;99.90;;;;;;6131032;23;20045;-86
2022/01/20 07:43:40;;;;;;;4.80;0.88;;;2.90;99.90;;;;;;6105997;23;20242;-85
2022/01/20 07:46:06;;;;;;;9.47;1.23;;;2.80;99.90;;;;;;6130598;23;20140;-85
2022/01/20 07:48:33;;;;;;;5.33;0.70;;;2.60;99.90;;;;;;6130282;23;20013;-86
2022/01/20 07:51:06;;;;;;;7.57;1.20;;;2.50;99.90;;;;;;6130774;23;20251;-87
2022/01/20 07:53:39;;;;;;;7.95;1.58;;;2.50;99.90;;;;;;6130615;23;20014;-85
2022/01/20 07:56:08;;;;;;;12.48;1.75;;;2.50;99.90;;;;;;6156451;23;20021;-87
2022/01/20 08:01:09;;;;;;;18.17;2.63;;;2.70;99.90;;;;;;6126855;23;20025;-85
2022/01/20 08:03:36;;;;;;;13.48;2.28;;;2.80;99.90;;;;;;6101101;23;20024;-86
2022/01/20 08:06:02;;;;;;;14.57;2.00;;;2.80;99.90;;;;;;6101473;23;20388;-86
2022/01/20 08:08:29;;;;;;;19.05;2.53;;;2.80;99.90;;;;;;6101346;23;20022;-86
2022/01/20 08:13:49;;;;;;;14.63;2.40;;;2.90;99.90;;;;;;6127786;23;20026;-85
2022/01/20 08:16:15;;;;;;;17.42;2.88;;;2.90;99.90;;;;;;6076970;23;20021;-87
2022/01/20 08:18:41;;;;;;;15.32;3.20;;;2.90;99.90;;;;;;6101003;23;20157;-85
2022/01/20 08:21:19;;;;;;;17.40;2.90;;;3.00;99.90;;;;;;6077552;23;20112;-85
2022/01/20 08:23:45;;;;;;;18.50;2.45;;;3.00;99.90;;;;;;6100467;23;20022;-84
2022/01/20 08:26:11;;;;;;;11.68;1.80;;;3.10;99.90;;;;;;6098717;23;20018;-83
2022/01/20 08:28:37;;;;;;;18.97;2.33;;;3.10;99.90;;;;;;6099945;23;20073;-84
2022/01/20 08:31:17;;;;;;;12.97;2.00;;;3.10;99.90;;;;;;6125540;23;20014;-87
2022/01/20 08:33:43;;;;;;;13.38;2.00;;;3.10;99.90;;;;;;6099888;23;20100;-83
2022/01/20 08:36:34;;;;;;;10.52;1.70;;;3.10;99.90;;;;;;6101068;23;20395;-85
2022/01/20 08:39:45;;;;;;;17.65;2.13;;;3.10;99.90;;;;;;6100382;23;20014;-84
2022/01/20 08:42:13;;;;;;;14.48;1.60;;;3.10;99.90;;;;;;6101142;23;20363;-88
2022/01/20 08:44:39;;;;;;;8.65;1.30;;;3.20;99.90;;;;;;6077159;23;20082;-90
2022/01/20 08:47:13;;;;;;;13.60;1.83;;;3.20;99.90;;;;;;6127247;23;20313;-89
2022/01/20 08:49:39;;;;;;;15.63;2.10;;;3.30;99.90;;;;;;6077132;23;20057;-88
2022/01/20 08:52:05;;;;;;;9.40;1.35;;;3.40;99.90;;;;;;6100860;23;20018;-89
2022/01/20 08:54:31;;;;;;;9.50;1.10;;;3.40;99.90;;;;;;6100867;23;20018;-88
2022/01/20 08:56:57;;;;;;;10.50;1.40;;;3.40;99.90;;;;;;6101268;23;20573;-89
2022/01/20 08:59:25;;;;;;;12.25;1.85;;;3.30;99.90;;;;;;6101189;23;20057;-91
2022/01/20 09:01:53;;;;;;;12.35;1.42;;;3.20;99.90;;;;;;6076722;23;20017;-90
2022/01/20 09:04:19;;;;;;;13.57;1.90;;;3.20;99.90;;;;;;6076921;23;20018;-88
2022/01/20 09:06:45;;;;;;;13.07;1.60;;;3.10;99.90;;;;;;6100927;23;20491;-88
2022/01/20 09:09:11;;;;;;;9.67;1.20;;;3.10;99.90;;;;;;6076611;23;20049;-88
2022/01/20 09:11:50;;;;;;;11.38;1.55;;;3.10;99.90;;;;;;6101923;23;20020;-87
2022/01/20 09:16:59;;;;;;;16.75;2.25;;;3.10;99.90;;;;;;6100644;23;20018;-89
2022/01/20 09:19:25;;;;;;;26.20;3.80;;;3.30;99.90;;;;;;6101358;23;20129;-89
2022/01/20 09:21:51;;;;;;;17.03;2.30;;;3.40;99.90;;;;;;6100562;23;20073;-88
2022/01/20 09:24:17;;;;;;;20.92;3.15;;;3.40;99.90;;;;;;6100934;23;20253;-93
2022/01/20 09:26:42;;;;;;;20.93;2.60;;;3.30;99.90;;;;;;6100946;23;20024;-91
2022/01/20 09:29:08;;;;;;;17.90;2.88;;;3.30;99.90;;;;;;6100560;23;20399;-89
2022/01/20 09:31:38;;;;;;;18.27;2.30;;;3.20;99.90;;;;;;6101002;23;20022;-88
2022/01/20 09:34:04;;;;;;;17.58;2.20;;;3.20;99.90;;;;;;6100693;23;20511;-89
2022/01/20 09:36:30;;;;;;;11.60;2.33;;;3.20;99.90;;;;;;6076399;23;20022;-88
2022/01/20 09:38:56;;;;;;;15.93;2.37;;;3.30;99.90;;;;;;6101464;23;20022;-90
2022/01/20 09:41:22;;;;;;;13.43;2.05;;;3.30;99.90;;;;;;6100821;23;20491;-88
2022/01/20 09:43:48;;;;;;;14.40;2.43;;;3.40;99.90;;;;;;6101065;23;20025;-92
2022/01/20 09:46:13;;;;;;;17.00;1.95;;;3.50;99.90;;;;;;6076930;23;20017;-89
2022/01/20 09:48:39;;;;;;;13.83;2.00;;;3.50;99.90;;;;;;6100732;23;20014;-88
2022/01/20 09:51:06;;;;;;;14.80;1.83;;;3.70;99.90;;;;;;6100846;23;20348;-88
2022/01/20 09:53:32;;;;;;;12.18;1.98;;;3.70;99.90;;;;;;6100958;23;20384;-89
2022/01/20 09:55:58;;;;;;;15.80;2.73;;;3.80;99.90;;;;;;6100668;23;20052;-88
2022/01/20 09:58:24;;;;;;;11.40;1.95;;;3.80;99.90;;;;;;6076632;23;20053;-89
2022/01/20 10:00:51;;;;;;;12.25;1.90;;;3.80;99.90;;;;;;6100744;23;20014;-89
2022/01/20 10:03:20;;;;;;;17.88;2.42;;;3.80;99.90;;;;;;6100843;23;20090;-89
2022/01/20 10:05:53;;;;;;;19.33;2.88;;;3.80;99.90;;;;;;6100468;23;20018;-89
2022/01/20 10:08:26;;;;;;;19.80;2.67;;;3.90;99.90;;;;;;6076952;23;20025;-88
2022/01/20 10:10:56;;;;;;;16.23;3.47;;;4.00;99.90;;;;;;6076696;23;20018;-89
2022/01/20 10:13:27;;;;;;;22.48;3.15;;;4.10;99.90;;;;;;6076267;23;20466;-88
2022/01/20 10:16:14;;;;;;;17.77;2.38;;;4.10;99.90;;;;;;6076332;23;20432;-88
2022/01/20 10:18:50;;;;;;;14.90;2.80;;;4.10;99.90;;;;;;6076639;23;20018;-90
2022/01/20 10:21:16;;;;;;;13.65;1.95;;;4.20;99.90;;;;;;6126567;23;20055;-89
2022/01/20 10:23:45;;;;;;;10.70;1.92;;;4.20;99.90;;;;;;6100667;23;20097;-92
2022/01/20 10:26:19;;;;;;;7.43;1.10;;;4.00;99.90;;;;;;6076369;23;20040;-88
2022/01/20 10:28:47;;;;;;;11.93;1.80;;;3.90;99.90;;;;;;6076399;23;20025;-89
2022/01/20 10:31:15;;;;;;;11.43;1.35;;;3.70;99.90;;;;;;6100430;23;20029;-90
2022/01/20 10:33:42;;;;;;;13.02;1.75;;;3.50;99.90;;;;;;6075926;23;20014;-91
2022/01/20 10:36:10;;;;;;;10.70;1.58;;;3.40;99.90;;;;;;6076889;23;20061;-89
2022/01/20 10:38:36;;;;;;;18.42;2.67;;;3.50;99.90;;;;;;6100538;23;20094;-90
2022/01/20 10:41:04;;;;;;;14.07;2.88;;;3.70;99.90;;;;;;6076506;23;20018;-89
2022/01/20 10:43:35;;;;;;;13.13;2.25;;;3.70;99.90;;;;;;6076335;23;20321;-90
2022/01/20 10:46:19;;;;;;;19.63;2.53;;;3.60;99.90;;;;;;6076207;23;20085;-90
2022/01/20 10:48:58;;;;;;;20.73;3.20;;;3.60;99.90;;;;;;6100390;23;20344;-90
2022/01/20 10:51:24;;;;;;;23.77;2.83;;;3.60;99.90;;;;;;6076572;23;20022;-89
2022/01/20 10:54:00;;;;;;;16.40;3.10;;;3.50;99.90;;;;;;6100075;23;20014;-89
2022/01/20 10:56:29;;;;;;;18.30;2.97;;;3.50;99.90;;;;;;6077167;23;20022;-90
2022/01/20 10:59:06;;;;;;;19.90;3.10;;;3.40;99.90;;;;;;6078755;23;20081;-90
2022/01/20 11:01:32;;;;;;;18.52;2.53;;;3.40;99.90;;;;;;6102784;23;20053;-89
2022/01/20 11:03:58;;;;;;;22.73;2.80;;;3.40;99.90;;;;;;6102169;23;20026;-88
2022/01/20 11:06:24;;;;;;;14.40;2.72;;;3.50;99.90;;;;;;6102298;23;20016;-89
2022/01/20 11:08:51;;;;;;;13.70;2.00;;;3.60;99.90;;;;;;6102368;23;20068;-89
2022/01/20 11:11:17;;;;;;;14.18;2.55;;;3.70;99.90;;;;;;6102168;23;20018;-91
2022/01/20 11:13:43;;;;;;;13.52;1.95;;;3.80;99.90;;;;;;6128240;23;20029;-89
2022/01/20 11:16:09;;;;;;;11.50;2.13;;;3.90;99.90;;;;;;6102084;23;20395;-88
2022/01/20 11:18:38;;;;;;;17.83;2.15;;;4.10;99.90;;;;;;6102199;23;20017;-91
2022/01/20 11:21:05;;;;;;;14.80;2.10;;;4.10;99.90;;;;;;6102304;23;20451;-88
2022/01/20 11:23:42;;;;;;;15.35;2.47;;;4.10;99.90;;;;;;6101729;23;20022;-89
2022/01/20 11:26:08;;;;;;;19.00;2.47;;;4.10;99.90;;;;;;6078146;23;20025;-88
2022/01/20 11:28:34;;;;;;;13.57;2.58;;;4.20;99.90;;;;;;6078034;23;20025;-88
2022/01/20 11:31:05;;;;;;;11.60;2.27;;;4.20;99.90;;;;;;6077921;23;20022;-88
2022/01/20 11:33:43;;;;;;;15.27;2.25;;;4.30;99.90;;;;;;6077893;23;20028;-89
2022/01/20 11:36:29;;;;;;;;;;;4.40;99.90;;;;;;6102278;23;20340;-90
2022/01/20 11:39:05;;;;;;;13.43;2.30;;;4.50;99.90;;;;;;6077573;23;19920;-88
2022/01/20 11:41:47;;;;;;;21.48;2.97;;;4.50;99.90;;;;;;6077817;23;20022;-89
2022/01/20 11:44:18;;;;;;;15.00;2.45;;;4.50;99.90;;;;;;6077508;23;20014;-90
2022/01/20 11:46:49;;;;;;;24.17;3.00;;;4.50;99.90;;;;;;6077894;23;20101;-89
2022/01/20 11:49:17;;;;;;;22.65;3.05;;;4.40;99.90;;;;;;6101814;23;20021;-89
2022/01/20 11:51:55;;;;;;;18.65;2.97;;;4.40;99.90;;;;;;6077470;23;20026;-89
2022/01/20 11:54:35;;;;;;;17.20;2.53;;;4.20;99.90;;;;;;6077945;23;20045;-88
2022/01/20 11:57:16;;;;;;;13.48;2.30;;;4.10;99.90;;;;;;6077806;23;20051;-91
2022/01/20 11:59:56;;;;;;;9.55;1.35;;;4.00;99.90;;;;;;6077736;23;20056;-89
2022/01/20 12:02:39;;;;;;;7.40;1.00;;;3.90;99.90;;;;;;6077686;23;20025;-89
2022/01/20 12:05:30;;;;;;;11.82;1.00;;;3.80;99.90;;;;;;6101820;23;20018;-91
2022/01/20 12:08:15;;;;;;;6.97;1.20;;;3.70;99.90;;;;;;6077114;23;20068;-90
2022/01/20 12:10:43;;;;;;;9.43;1.45;;;3.60;99.90;;;;;;6102219;23;20022;-87
2022/01/20 12:13:16;;;;;;;12.05;1.38;;;3.50;99.90;;;;;;6076909;23;20467;-89
2022/01/20 12:15:49;;;;;;;9.73;1.90;;;3.50;99.90;;;;;;6100476;23;20025;-87
2022/01/20 12:18:15;;;;;;;9.63;1.77;;;3.60;99.90;;;;;;6100192;23;20049;-87
2022/01/20 12:20:41;;;;;;;10.35;1.48;;;3.70;99.90;;;;;;6075880;23;20018;-88
2022/01/20 12:23:06;;;;;;;14.67;2.23;;;3.80;99.90;;;;;;6076045;23;20097;-88
2022/01/20 12:25:35;;;;;;;20.60;2.00;;;3.90;99.90;;;;;;6100179;23;20057;-89
2022/01/20 12:28:05;;;;;;;14.48;2.28;;;4.20;99.90;;;;;;6076164;23;20018;-88
2022/01/20 12:30:32;;;;;;;15.50;2.30;;;4.30;99.90;;;;;;6125962;23;20045;-88
2022/01/20 12:33:03;;;;;;;;;;;4.30;99.90;;;;;;6076177;23;20029;-88
2022/01/20 12:35:43;;;;;;;14.90;2.10;;;4.40;99.90;;;;;;6076124;23;19999;-88
2022/01/20 12:38:22;;;;;;;16.27;2.00;;;4.40;99.90;;;;;;6075764;23;20456;-90
2022/01/20 12:41:08;;;;;;;10.98;1.98;;;4.40;99.90;;;;;;6075857;23;20343;-88
2022/01/20 12:43:45;;;;;;;17.40;2.10;;;4.50;99.90;;;;;;6075613;23;20018;-89
2022/01/20 12:46:14;;;;;;;12.55;2.17;;;4.50;99.90;;;;;;6099914;23;20335;-89
2022/01/20 12:49:00;;;;;;;18.67;2.10;;;4.50;99.90;;;;;;6099995;23;20080;-89
2022/01/20 12:51:51;;;;;;;10.10;2.00;;;4.50;99.90;;;;;;6100228;23;20022;-90
2022/01/20 12:54:27;;;;;;;13.43;2.20;;;4.50;99.90;;;;;;6075698;23;20101;-91
2022/01/20 12:56:59;;;;;;;14.82;2.20;;;4.50;99.90;;;;;;6100173;23;20025;-91
2022/01/20 12:59:30;;;;;;;16.55;1.98;;;4.50;99.90;;;;;;6075866;23;20025;-92
2022/01/20 13:02:06;;;;;;;22.73;2.92;;;4.60;99.90;;;;;;6076368;23;20053;-91
2022/01/20 13:04:33;;;;;;;13.05;2.28;;;4.70;99.90;;;;;;6076109;23;20018;-92
2022/01/20 13:07:02;;;;;;;17.33;2.60;;;4.70;99.90;;;;;;6075792;23;20041;-89
2022/01/20 13:09:52;;;;;;;23.25;3.45;;;4.70;99.90;;;;;;6100116;23;20018;-89
2022/01/20 13:12:30;;;;;;;15.98;3.08;;;4.40;99.90;;;;;;6076447;23;20076;-91
2022/01/20 13:14:56;;;;;;;15.32;2.22;;;4.20;99.90;;;;;;6053475;23;1121675;-89
2022/01/20 13:17:28;;;;;;;13.07;1.80;;;4.00;99.90;;;;;;6100584;23;20125;-87
2022/01/20 13:19:56;;;;;;;12.73;1.70;;;3.90;99.90;;;;;;6126894;23;20096;-90
2022/01/20 13:22:54;;;;;;;13.48;1.83;;;3.80;99.90;;;;;;6076968;23;20093;-89
2022/01/20 13:25:24;;;;;;;10.85;1.30;;;3.70;99.90;;;;;;6077052;23;20026;-90
2022/01/20 13:27:57;;;;;;;10.95;0.90;;;3.70;99.90;;;;;;6076845;23;20021;-92
2022/01/20 13:30:29;;;;;;;8.05;1.25;;;3.80;99.90;;;;;;6100871;23;20010;-89
2022/01/20 13:32:56;;;;;;;10.07;1.20;;;3.90;99.90;;;;;;6076981;23;20440;-89
2022/01/20 13:35:22;;;;;;;9.30;1.13;;;3.90;99.90;;;;;;6100327;23;20016;-89
2022/01/20 13:38:03;;;;;;;13.25;1.83;;;3.90;99.90;;;;;;6076737;23;20025;-88
2022/01/20 13:40:29;;;;;;;13.15;1.75;;;3.90;99.90;;;;;;6076811;23;20347;-91
2022/01/20 13:45:43;;;;;;;12.30;2.50;;;3.90;99.90;;;;;;6100613;23;20104;-90
2022/01/20 13:48:12;;;;;;;12.20;2.10;;;3.80;99.90;;;;;;6100770;23;20018;-89
2022/01/20 13:50:40;;;;;;;12.15;1.85;;;3.80;99.90;;;;;;6076736;23;20022;-90
2022/01/20 13:53:18;;;;;;;9.05;1.90;;;3.90;99.90;;;;;;6076862;23;20018;-91
2022/01/20 13:55:45;;;;;;;12.02;2.10;;;4.00;99.90;;;;;;6077107;23;20022;-91
2022/01/20 13:58:29;;;;;;;17.48;1.88;;;4.10;99.90;;;;;;6076823;23;20443;-90
2022/01/20 14:00:57;;;;;;;15.60;2.38;;;4.10;99.90;;;;;;6077441;23;20024;-92
2022/01/20 14:03:23;;;;;;;16.30;2.00;;;4.10;99.90;;;;;;6076929;23;20444;-90
2022/01/20 14:05:52;;;;;;;15.60;2.15;;;4.20;99.90;;;;;;6101019;23;20016;-92
2022/01/20 14:08:26;;;;;;;16.33;2.63;;;4.20;99.90;;;;;;6076887;23;20024;-91
2022/01/20 14:10:55;;;;;;;14.93;2.30;;;4.20;99.90;;;;;;6076737;23;20028;-91
2022/01/20 14:13:22;;;;;;;10.10;1.30;;;4.10;99.90;;;;;;6076732;23;20025;-90
2022/01/20 14:15:55;;;;;;;7.78;1.38;;;3.90;99.90;;;;;;6076849;23;20022;-91
2022/01/20 14:18:23;;;;;;;6.47;1.15;;;3.70;99.90;;;;;;6099482;23;20022;-90
2022/01/20 14:20:49;;;;;;;13.10;1.60;;;3.60;99.90;;;;;;6076463;23;20014;-89
2022/01/20 14:23:15;;;;;;;9.80;1.57;;;3.50;99.90;;;;;;6100587;23;20325;-91
2022/01/20 14:25:42;;;;;;;13.52;1.50;;;3.40;99.90;;;;;;6076650;23;20014;-90
2022/01/20 14:28:08;;;;;;;11.20;1.77;;;3.40;99.90;;;;;;6076672;23;20037;-90
2022/01/20 14:30:38;;;;;;;17.50;2.13;;;3.40;99.90;;;;;;6077373;23;20014;-92
2022/01/20 14:33:04;;;;;;;12.80;1.92;;;3.50;99.90;;;;;;6078681;23;20018;-91
2022/01/20 14:35:31;;;;;;;18.17;2.53;;;3.60;99.90;;;;;;6078698;23;20036;-91
2022/01/20 14:37:58;;;;;;;15.55;2.47;;;3.60;99.90;;;;;;6102197;23;20022;-91
2022/01/20 14:40:24;;;;;;;19.48;2.30;;;3.70;99.90;;;;;;6102629;23;20018;-92
2022/01/20 14:42:51;;;;;;;19.55;2.22;;;3.70;99.90;;;;;;6078541;23;20352;-90
2022/01/20 14:45:21;;;;;;;15.27;2.42;;;3.70;99.90;;;;;;6102232;23;20006;-91
2022/01/20 14:47:51;;;;;;;16.77;2.30;;;3.70;99.90;;;;;;6078262;23;20049;-90
2022/01/20 14:50:21;;;;;;;8.68;1.05;;;3.70;99.90;;;;;;6101841;23;20077;-91
2022/01/20 14:52:48;;;;;;;6.93;0.90;;;3.70;99.90;;;;;;6102036;23;20205;-90
2022/01/20 14:55:14;;;;;;;5.88;0.85;;;3.70;99.90;;;;;;6078369;23;20148;-90
2022/01/20 14:57:40;;;;;;;14.35;1.67;;;3.70;99.90;;;;;;6078114;23;20022;-89
2022/01/20 15:00:08;;;;;;;15.17;2.07;;;3.70;99.90;;;;;;6102252;23;20096;-90
2022/01/20 15:02:34;;;;;;;13.80;2.53;;;3.70;99.90;;;;;;6078077;23;20056;-90
2022/01/20 15:05:00;;;;;;;13.88;1.95;;;3.70;99.90;;;;;;6078395;23;20343;-90
2022/01/20 15:07:26;;;;;;;19.23;2.47;;;3.70;99.90;;;;;;6102258;23;20507;-91
2022/01/20 15:09:52;;;;;;;15.80;2.83;;;3.70;99.90;;;;;;6078252;23;20738;-91
2022/01/20 15:12:18;;;;;;;16.00;2.00;;;3.70;99.90;;;;;;6102255;23;20026;-91
2022/01/20 15:14:44;;;;;;;21.27;3.10;;;3.60;99.90;;;;;;6101920;23;20049;-89
2022/01/20 15:17:10;;;;;;;10.43;1.37;;;3.60;99.90;;;;;;6101897;23;20145;-89
2022/01/20 15:22:20;;;;;;;9.15;1.65;;;3.70;99.90;;;;;;6102366;23;20026;-92